Time;durP1;ratioP1;P1;durP2;ratioP2;P2;SDS_P1;SDS_P2;PMS_P1;PMS_P2;Temp;Humidity;BMP_temperature;BMP_pressure;BME280_temperature;BME280_humidity;BME280_pressure;Samples;Min_cycle;Max_cycle;Signal;HPM_P1;HPM_P2
2022/05/21 00:03:25;;;;;;;23.10;12.82;;;;;;;9.71;100.00;101647.50;10499445;28;20033;-75
2022/05/21 00:08:25;;;;;;;19.67;10.35;;;;;;;9.67;100.00;101646.28;10481800;28;20039;-75
2022/05/21 00:13:27;;;;;;;18.83;10.35;;;;;;;9.62;100.00;101643.41;10514458;28;20394;-76
2022/05/21 00:18:28;;;;;;;19.17;10.57;;;;;;;9.64;100.00;101657.75;10481284;28;20047;-76
2022/05/21 00:23:32;;;;;;;18.25;9.98;;;;;;;9.52;100.00;101635.69;10470607;28;20045;-75
2022/05/21 00:28:34;;;;;;;19.00;9.90;;;;;;;9.52;100.00;101640.34;10474268;28;20063;-75
2022/05/21 00:33:34;;;;;;;17.25;9.85;;;;;;;9.50;100.00;101640.56;10486478;28;20567;-75
2022/05/21 00:38:35;;;;;;;21.13;11.10;;;;;;;9.40;100.00;101630.09;10463595;28;20033;-75
2022/05/21 00:43:36;;;;;;;25.42;10.95;;;;;;;9.50;100.00;101635.06;10463301;28;20048;-75
2022/05/21 00:48:37;;;;;;;24.00;12.88;;;;;;;9.54;100.00;101630.78;10498994;28;20415;-75
2022/05/21 00:53:37;;;;;;;22.95;13.43;;;;;;;9.50;100.00;101619.41;10496510;28;20033;-74
2022/05/21 01:03:57;;;;;;;27.30;15.13;;;;;;;9.60;100.00;101626.31;10496772;28;20044;-75
2022/05/21 01:08:57;;;;;;;35.55;18.23;;;;;;;9.55;100.00;101609.63;10482712;28;20033;-77
2022/05/21 01:13:57;;;;;;;35.00;18.40;;;;;;;9.50;100.00;101600.16;10454977;28;20036;-75
2022/05/21 01:18:58;;;;;;;38.40;20.50;;;;;;;9.59;100.00;101605.38;10455613;28;20029;-75
2022/05/21 01:23:58;;;;;;;39.17;21.00;;;;;;;9.66;100.00;101617.13;10455515;28;20045;-74
2022/05/21 01:28:59;;;;;;;40.78;22.15;;;;;;;9.57;100.00;101594.63;10455921;28;20044;-75
2022/05/21 01:34:00;;;;;;;44.60;22.40;;;;;;;9.67;100.00;101608.66;10437309;28;20041;-76
2022/05/21 01:39:00;;;;;;;44.67;25.67;;;;;;;9.74;100.00;101596.75;10456116;28;20053;-75
2022/05/21 01:49:20;;;;;;;63.22;31.58;;;;;;;9.97;100.00;101602.34;10463378;28;20171;-74
2022/05/21 01:54:20;;;;;;;59.95;32.50;;;;;;;10.12;100.00;101610.19;10463530;28;20504;-74
2022/05/21 01:59:20;;;;;;;60.72;34.15;;;;;;;10.24;100.00;101605.56;10463473;28;20078;-74
2022/05/21 02:04:21;;;;;;;77.30;36.60;;;;;;;10.33;100.00;101602.50;10463520;28;20120;-75
2022/05/21 02:09:22;;;;;;;82.15;39.50;;;;;;;10.30;100.00;101590.88;10463032;28;20029;-75
2022/05/21 02:14:22;;;;;;;76.53;40.50;;;;;;;10.45;100.00;101608.88;10444680;28;20032;-75
2022/05/21 02:19:22;;;;;;;85.93;40.15;;;;;;;10.50;100.00;101611.78;10463456;28;20033;-74
2022/05/21 02:24:23;;;;;;;92.45;45.83;;;;;;;10.46;100.00;101592.13;10502806;28;20044;-75
2022/05/21 02:29:23;;;;;;;97.25;46.28;;;;;;;10.62;100.00;101596.09;10502805;28;20032;-77
2022/05/21 02:34:24;;;;;;;93.30;46.20;;;;;;;10.70;100.00;101586.66;10501601;28;20044;-69
2022/05/21 02:39:30;;;;;;;101.90;45.00;;;;;;;10.74;100.00;101579.59;10501932;28;22290;-73
2022/05/21 02:44:31;;;;;;;105.35;49.00;;;;;;;10.73;100.00;101572.44;10503539;28;20143;-73
2022/05/21 02:49:32;;;;;;;98.03;47.70;;;;;;;10.90;100.00;101584.41;10504222;28;20158;-74
2022/05/21 02:54:33;;;;;;;100.85;47.75;;;;;;;10.95;100.00;101580.91;10503087;28;20512;-74
2022/05/21 02:59:33;;;;;;;87.20;46.47;;;;;;;10.99;100.00;101576.59;10460796;28;20044;-74
2022/05/21 03:04:34;;;;;;;93.95;47.85;;;;;;;11.00;100.00;101567.28;10460684;28;20045;-75
2022/05/21 03:14:53;;;;;;;82.30;48.90;;;;;;;10.99;100.00;101571.09;10461626;28;20044;-74
2022/05/21 03:19:54;;;;;;;89.70;48.15;;;;;;;10.98;100.00;101577.69;10461099;28;20037;-75
2022/05/21 03:24:54;;;;;;;84.30;47.53;;;;;;;10.98;100.00;101574.09;10459723;28;20045;-75
2022/05/21 03:29:55;;;;;;;89.07;45.95;;;;;;;11.03;100.00;101586.06;10469392;28;20040;-74
2022/05/21 03:34:55;;;;;;;91.68;47.53;;;;;;;11.09;100.00;101576.84;10497825;28;20378;-74
2022/05/21 03:39:55;;;;;;;84.57;46.25;;;;;;;11.16;100.00;101579.47;10500661;28;20082;-74
2022/05/21 03:44:56;;;;;;;82.25;45.08;;;;;;;11.11;100.00;101569.16;10501019;28;20040;-75
2022/05/21 03:49:56;;;;;;;79.35;41.60;;;;;;;11.30;100.00;101588.31;10501042;28;20037;-73
2022/05/21 03:54:57;;;;;;;77.60;41.97;;;;;;;11.33;100.00;101587.84;10499084;28;20043;-72
2022/05/21 03:59:57;;;;;;;78.47;40.15;;;;;;;11.38;100.00;101585.19;10473106;28;20045;-74
2022/05/21 04:04:58;;;;;;;77.18;40.55;;;;;;;11.42;100.00;101583.63;10458634;28;20041;-73
2022/05/21 04:09:59;;;;;;;70.65;40.00;;;;;;;11.48;100.00;101585.41;10458239;28;20096;-73
2022/05/21 04:14:59;;;;;;;73.80;37.95;;;;;;;11.54;100.00;101574.50;10458722;28;20040;-73
2022/05/21 04:20:00;;;;;;;66.75;34.45;;;;;;;11.55;100.00;101573.41;10458171;28;20025;-75
2022/05/21 04:25:00;;;;;;;62.90;33.95;;;;;;;11.64;100.00;101583.00;10455716;28;20037;-74
2022/05/21 04:30:04;;;;;;;59.78;29.30;;;;;;;11.66;100.00;101586.34;10454370;28;20033;-73
2022/05/21 04:35:05;;;;;;;49.88;27.27;;;;;;;11.71;100.00;101590.03;10457318;28;20029;-74
2022/05/21 04:40:08;;;;;;;44.75;23.77;;;;;;;11.66;100.00;101575.31;10457496;28;20051;-74
2022/05/21 04:45:09;;;;;;;45.00;21.77;;;;;;;11.85;100.00;101590.59;10455961;28;20742;-74
2022/05/21 04:50:10;;;;;;;35.95;20.40;;;;;;;11.90;100.00;101603.69;10455917;28;20041;-76
2022/05/21 04:55:10;;;;;;;33.55;18.05;;;;;;;11.97;100.00;101598.00;10457831;28;20191;-75
2022/05/21 05:00:11;;;;;;;28.38;12.75;;;;;;;11.96;100.00;101599.94;10454981;28;20474;-76
2022/05/21 05:05:12;;;;;;;31.92;13.13;;;;;;;12.08;100.00;101616.47;10454611;28;20078;-73
2022/05/21 05:10:13;;;;;;;29.27;9.23;;;;;;;12.20;100.00;101614.50;10438798;28;20041;-75
2022/05/21 05:15:13;;;;;;;26.27;6.63;;;;;;;12.17;100.00;101608.63;10456835;28;20041;-77
2022/05/21 05:20:14;;;;;;;20.77;5.70;;;;;;;12.20;100.00;101621.94;10477166;28;20282;-76
2022/05/21 05:25:14;;;;;;;20.10;6.47;;;;;;;12.16;100.00;101631.78;10506104;28;20032;-72
2022/05/21 05:30:16;;;;;;;23.77;7.88;;;;;;;12.22;100.00;101617.00;10504008;28;20123;-76
2022/05/21 05:35:16;;;;;;;15.63;5.18;;;;;;;12.37;100.00;101619.22;10503689;28;20532;-76
2022/05/21 05:40:18;;;;;;;19.08;5.72;;;;;;;12.47;100.00;101645.09;10504354;28;20037;-70
2022/05/21 05:45:19;;;;;;;13.98;5.07;;;;;;;12.54;100.00;101636.63;10487393;28;20507;-75
2022/05/21 05:50:20;;;;;;;20.48;4.75;;;;;;;12.59;100.00;101646.94;10471079;28;20056;-74
2022/05/21 05:55:20;;;;;;;14.13;3.88;;;;;;;12.65;100.00;101649.56;10461985;28;20040;-76
2022/05/21 06:00:21;;;;;;;13.52;4.10;;;;;;;12.57;100.00;101635.28;10478189;28;20051;-75
2022/05/21 06:05:25;;;;;;;16.48;4.18;;;;;;;12.88;100.00;101647.72;10504259;28;20040;-75
2022/05/21 06:10:30;;;;;;;20.80;3.53;;;;;;;12.80;100.00;101639.84;10495815;28;20112;-76
2022/05/21 06:15:31;;;;;;;13.57;3.92;;;;;;;13.02;100.00;101650.97;10460808;28;20037;-77
2022/05/21 06:20:31;;;;;;;10.68;4.03;;;;;;;13.11;100.00;101664.13;10460494;28;20041;-74
2022/05/21 06:25:34;;;;;;;13.75;2.85;;;;;;;13.18;100.00;101666.72;10462070;28;20063;-76
2022/05/21 06:30:37;;;;;;;8.52;2.58;;;;;;;13.27;100.00;101667.13;10459416;28;20116;-75
2022/05/21 06:35:38;;;;;;;15.38;3.22;;;;;;;13.28;100.00;101669.66;10459449;28;20059;-77
2022/05/21 06:40:38;;;;;;;10.48;3.05;;;;;;;13.28;100.00;101660.53;10488539;28;20105;-77
2022/05/21 06:45:39;;;;;;;12.75;4.15;;;;;;;13.59;100.00;101675.66;10484217;28;20044;-77
2022/05/21 06:50:39;;;;;;;14.98;3.08;;;;;;;13.62;100.00;101674.31;10499798;28;20048;-75
2022/05/21 06:55:40;;;;;;;12.35;3.45;;;;;;;13.71;100.00;101689.41;10498875;28;20041;-77
2022/05/21 07:00:41;;;;;;;14.07;3.60;;;;;;;14.03;100.00;101691.47;10500207;28;20044;-76
2022/05/21 07:11:08;;;;;;;8.57;2.20;;;;;;;14.15;100.00;101696.88;10465819;28;20087;-70
2022/05/21 07:16:08;;;;;;;11.32;2.13;;;;;;;14.19;100.00;101693.31;10498843;28;20052;-72
2022/05/21 07:21:13;;;;;;;16.90;3.17;;;;;;;14.42;100.00;101699.69;10500134;28;20380;-74
2022/05/21 07:26:14;;;;;;;10.05;2.33;;;;;;;14.19;100.00;101709.94;10471257;28;20040;-74
2022/05/21 07:31:14;;;;;;;10.35;2.92;;;;;;;14.04;100.00;101710.59;10499582;28;20560;-72
2022/05/21 07:36:14;;;;;;;10.77;2.22;;;;;;;14.42;100.00;101727.38;10477956;28;20040;-72
2022/05/21 07:41:16;;;;;;;7.20;2.10;;;;;;;14.63;100.00;101703.53;10496689;28;20033;-72
2022/05/21 07:46:16;;;;;;;9.07;2.30;;;;;;;14.95;100.00;101734.06;10496336;28;20044;-71
2022/05/21 07:51:17;;;;;;;22.23;2.40;;;;;;;14.80;100.00;101733.91;10499612;28;20044;-73
2022/05/21 07:56:17;;;;;;;9.40;2.00;;;;;;;14.53;100.00;101734.69;10498588;28;20033;-74
2022/05/21 08:01:18;;;;;;;11.95;3.15;;;;;;;14.96;100.00;101732.97;10495285;28;20644;-71
2022/05/21 08:06:19;;;;;;;11.30;2.30;;;;;;;15.29;100.00;101744.91;10496546;28;20052;-76
2022/05/21 08:11:20;;;;;;;16.70;2.88;;;;;;;14.68;100.00;101747.94;10478155;28;20251;-73
2022/05/21 08:16:22;;;;;;;11.23;3.60;;;;;;;15.26;100.00;101762.09;10492492;28;20036;-74
2022/05/21 08:21:23;;;;;;;8.52;2.60;;;;;;;15.85;100.00;101759.22;10469938;28;20037;-74
2022/05/21 08:31:42;;;;;;;10.10;2.17;;;;;;;14.92;100.00;101776.19;10481095;28;20215;-72
2022/05/21 08:36:43;;;;;;;9.52;2.30;;;;;;;15.76;100.00;101771.94;10483145;28;20045;-76
2022/05/21 08:41:58;;;;;;;10.88;2.58;;;;;;;15.96;100.00;101774.00;10477084;28;20037;-72
2022/05/21 08:47:08;;;;;;;12.02;2.35;;;;;;;15.64;100.00;101777.66;10464212;28;20044;-74
2022/05/21 08:52:29;;;;;;;11.15;1.95;;;;;;;15.92;100.00;101781.22;10479931;28;20033;-73
2022/05/21 08:57:54;;;;;;;5.65;1.40;;;;;;;15.81;100.00;101776.69;10463234;28;20045;-71
2022/05/21 09:02:54;;;;;;;7.80;1.95;;;;;;;15.67;100.00;101781.84;10460228;28;20044;-75
2022/05/21 09:08:04;;;;;;;10.23;2.55;;;;;;;15.56;100.00;101794.78;10464647;28;20045;-72
2022/05/21 09:13:11;;;;;;;9.73;1.88;;;;;;;16.15;100.00;101796.63;10456211;28;20036;-74
2022/05/21 09:18:11;;;;;;;;;;;;;;;15.94;100.00;101799.28;10454824;28;20082;-73
2022/05/21 09:23:12;;;;;;;7.38;2.15;;;;;;;15.85;100.00;101800.84;10456839;28;19916;-73
2022/05/21 09:28:12;;;;;;;10.05;2.75;;;;;;;16.16;100.00;101811.34;10456691;28;20040;-76
2022/05/21 09:33:43;;;;;;;7.43;1.75;;;;;;;16.92;100.00;101808.06;10453473;28;20033;-75
2022/05/21 09:38:54;;;;;;;4.85;1.73;;;;;;;16.93;100.00;101815.31;10478507;28;20060;-76
2022/05/21 09:49:25;;;;;;;8.02;1.60;;;;;;;16.32;100.00;101835.31;10483055;28;20120;-77
2022/05/21 09:54:44;;;;;;;10.90;1.90;;;;;;;16.61;100.00;101824.63;10495433;28;20409;-75
2022/05/21 09:59:44;;;;;;;5.47;1.45;;;;;;;16.11;100.00;101831.59;10479350;28;20040;-75
2022/05/21 10:04:55;;;;;;;7.72;1.40;;;;;;;16.07;100.00;101831.28;10455274;28;20076;-76
2022/05/21 10:15:19;;;;;;;7.57;1.75;;;;;;;15.83;100.00;101853.06;10461869;28;20044;-75
2022/05/21 10:20:21;;;;;;;10.93;1.65;;;;;;;15.66;100.00;101857.88;10444213;28;20033;-78
2022/05/21 10:25:23;;;;;;;10.13;1.60;;;;;;;15.81;100.00;101871.91;10447570;28;20040;-80
2022/05/21 10:30:44;;;;;;;11.95;1.75;;;;;;;16.02;100.00;101866.53;10481899;28;20052;-75
2022/05/21 10:35:57;;;;;;;10.75;2.30;;;;;;;16.00;100.00;101849.28;10483955;28;20040;-80
2022/05/21 10:41:10;;;;;;;7.70;1.95;;;;;;;16.18;100.00;101870.25;10501586;28;20040;-77
2022/05/21 10:46:26;;;;;;;8.02;1.70;;;;;;;16.09;100.00;101872.69;10482572;28;20090;-72
2022/05/21 10:51:34;;;;;;;;;;;;;;;15.77;100.00;101864.38;10499376;28;20537;-74
2022/05/21 10:56:44;;;;;;;9.40;2.35;;;;;;;16.14;100.00;101869.94;10496259;28;19936;-78
2022/05/21 11:02:00;;;;;;;11.52;1.60;;;;;;;16.72;100.00;101859.72;10498110;28;20044;-75
2022/05/21 11:07:41;;;;;;;8.18;2.00;;;;;;;16.99;100.00;101874.56;10492597;28;20098;-76
2022/05/21 11:13:08;;;;;;;9.07;1.88;;;;;;;17.63;100.00;101856.59;10499116;28;20044;-78
2022/05/21 11:18:37;;;;;;;7.63;1.35;;;;;;;17.83;100.00;101859.41;10493717;28;20096;-80
2022/05/21 11:24:08;;;;;;;14.20;2.85;;;;;;;18.73;98.02;101861.41;10451294;28;20073;-75
2022/05/21 11:29:46;;;;;;;4.32;1.27;;;;;;;18.36;90.75;101842.31;10457629;28;20075;-78
2022/05/21 11:40:52;;;;;;;7.75;1.42;;;;;;;17.82;97.18;101866.06;10459455;28;20056;-82
2022/05/21 11:46:05;;;;;;;4.97;0.98;;;;;;;18.87;92.40;101821.75;10415190;28;20567;-84
2022/05/21 11:51:25;;;;;;;4.57;1.35;;;;;;;18.24;91.56;101864.09;10470897;28;20036;-80
2022/05/21 11:56:58;;;;;;;9.73;2.53;;;;;;;17.92;96.24;101876.38;10482142;28;20033;-82
2022/05/21 12:02:10;;;;;;;5.78;1.25;;;;;;;17.59;96.67;101883.31;10494324;28;20033;-85
2022/05/21 12:07:53;;;;;;;6.00;1.20;;;;;;;17.66;99.56;101906.16;10458210;28;20033;-78
2022/05/21 12:13:10;;;;;;;5.75;0.90;;;;;;;17.46;95.74;101891.09;10458278;28;20045;-80
2022/05/21 12:18:32;;;;;;;6.18;1.75;;;;;;;18.25;95.71;101891.69;10458439;28;20097;-71
2022/05/21 12:23:33;;;;;;;4.25;0.95;;;;;;;17.91;93.72;101897.84;10497546;28;20067;-79
2022/05/21 12:28:36;;;;;;;8.43;1.30;;;;;;;17.49;96.19;101912.00;10498285;28;20053;-74
2022/05/21 12:33:41;;;;;;;6.45;0.90;;;;;;;18.52;91.13;101884.91;10479619;28;20036;-74
2022/05/21 12:38:44;;;;;;;7.57;1.25;;;;;;;19.83;86.31;101882.84;10479178;28;20036;-78
2022/05/21 12:43:46;;;;;;;7.18;1.33;;;;;;;19.16;83.51;101891.63;10478421;28;20050;-80
2022/05/21 12:48:46;;;;;;;4.15;1.25;;;;;;;18.15;87.47;101902.84;10498264;28;20648;-81
2022/05/21 12:53:48;;;;;;;8.52;2.10;;;;;;;18.11;90.59;101910.09;10480041;28;20063;-83
2022/05/21 12:59:07;;;;;;;10.52;5.53;;;;;;;18.05;87.70;101902.88;10479292;28;20032;-74
2022/05/21 13:04:23;;;;;;;7.07;2.33;;;;;;;17.64;92.04;101925.09;10468141;28;20067;-82
2022/05/21 13:09:24;;;;;;;;;;;;;;;19.13;89.18;101912.59;10497734;28;20036;-78
2022/05/21 13:14:33;;;;;;;7.70;1.73;;;;;;;19.78;79.62;101906.06;10497828;28;19924;-75
2022/05/21 13:19:55;;;;;;;7.72;1.75;;;;;;;19.07;82.94;101919.31;10480602;28;20033;-80
2022/05/21 13:25:06;;;;;;;6.38;1.38;;;;;;;18.75;85.60;101925.31;10479880;28;20036;-73
2022/05/21 13:30:10;;;;;;;7.85;1.45;;;;;;;19.93;86.07;101922.72;10477870;28;20040;-74
2022/05/21 13:35:36;;;;;;;6.93;1.60;;;;;;;21.27;76.88;101891.28;10478401;28;20039;-76
2022/05/21 13:40:51;;;;;;;9.07;1.60;;;;;;;20.91;75.56;101893.75;10492516;28;20044;-75
2022/05/21 13:45:55;;;;;;;9.82;1.73;;;;;;;19.76;76.74;101911.09;10461198;28;20505;-74
2022/05/21 13:50:55;;;;;;;4.90;1.08;;;;;;;19.33;78.36;101917.25;10475445;28;20044;-75
2022/05/21 13:56:22;;;;;;;5.43;1.25;;;;;;;20.02;77.43;101902.53;10502936;28;20041;-75
2022/05/21 14:01:27;;;;;;;2.70;1.00;;;;;;;19.98;77.57;101895.84;10480174;28;20045;-76
2022/05/21 14:06:27;;;;;;;7.68;1.20;;;;;;;19.01;76.36;101908.47;10484861;28;20092;-75
2022/05/21 14:11:28;;;;;;;3.60;1.08;;;;;;;18.47;80.95;101922.00;10501154;28;20262;-74
2022/05/21 14:16:33;;;;;;;7.50;1.40;;;;;;;18.71;82.08;101933.41;10502223;28;20194;-75
2022/05/21 14:21:33;;;;;;;7.35;1.30;;;;;;;18.58;81.35;101922.81;10494990;28;20473;-75
2022/05/21 14:26:34;;;;;;;5.43;0.93;;;;;;;18.68;78.87;101869.78;10458088;28;20045;-78
2022/05/21 14:31:39;;;;;;;4.53;1.08;;;;;;;19.18;78.84;101924.84;10475191;28;20441;-75
2022/05/21 14:36:44;;;;;;;5.38;1.52;;;;;;;19.05;76.47;101921.56;10485642;28;20523;-76
2022/05/21 14:41:47;;;;;;;3.75;1.00;;;;;;;18.97;76.86;101912.97;10500939;28;20050;-79
2022/05/21 14:57:29;;;;;;;6.60;1.20;;;;;;;20.91;71.47;101886.16;10458998;28;20669;-75
2022/05/21 15:02:30;;;;;;;6.55;1.27;;;;;;;21.31;70.41;101829.88;10482656;28;20043;-77
2022/05/21 15:07:30;;;;;;;7.25;1.10;;;;;;;21.49;70.26;101884.28;10501199;28;20041;-77
2022/05/21 15:12:31;;;;;;;3.58;1.00;;;;;;;21.13;68.12;101885.59;10500966;28;20100;-80
2022/05/21 15:17:31;;;;;;;6.80;1.17;;;;;;;19.25;70.49;101903.06;10498963;28;20058;-79
2022/05/21 15:22:34;;;;;;;5.20;1.27;;;;;;;18.58;73.80;101905.25;10499432;28;20037;-86
2022/05/21 15:27:37;;;;;;;4.93;1.00;;;;;;;17.99;78.84;101903.97;10499060;28;20036;-84
2022/05/21 15:32:37;;;;;;;5.72;0.95;;;;;;;17.82;76.47;101905.06;10498448;28;20050;-77
2022/05/21 15:37:39;;;;;;;4.95;1.17;;;;;;;18.02;79.02;101907.03;10498127;28;20401;-75
2022/05/21 15:42:41;;;;;;;4.20;0.80;;;;;;;18.53;78.41;101914.47;10465211;28;20036;-77
2022/05/21 15:47:42;;;;;;;6.20;1.40;;;;;;;19.68;72.63;101898.56;10464817;28;20206;-84
2022/05/21 15:52:43;;;;;;;6.65;1.63;;;;;;;18.65;76.61;101908.59;10481285;28;20033;-80
2022/05/21 15:57:46;;;;;;;4.38;0.98;;;;;;;18.02;79.31;101922.91;10481390;28;20049;-81
2022/05/21 16:02:46;;;;;;;6.00;1.45;;;;;;;17.45;81.42;101924.78;10499036;28;20471;-82
2022/05/21 16:07:47;;;;;;;8.20;1.38;;;;;;;17.11;84.03;101920.50;10496660;28;20033;-77
2022/05/21 16:12:48;;;;;;;7.88;1.48;;;;;;;16.88;85.12;101916.25;10480808;28;20039;-83
2022/05/21 16:17:49;;;;;;;6.65;1.67;;;;;;;16.70;88.28;101920.31;10498341;28;20033;-81
2022/05/21 16:22:49;;;;;;;6.97;1.63;;;;;;;16.77;86.77;101910.91;10480072;28;20068;-81
2022/05/21 16:27:50;;;;;;;5.22;1.33;;;;;;;17.50;87.53;101914.47;10497498;28;20063;-81
2022/05/21 16:32:50;;;;;;;4.40;1.20;;;;;;;17.77;80.24;101896.69;10496813;28;20419;-78
2022/05/21 16:37:51;;;;;;;7.15;1.05;;;;;;;17.35;79.30;101901.38;10482783;28;20045;-81
2022/05/21 16:42:51;;;;;;;4.60;1.15;;;;;;;17.91;77.41;101917.34;10445792;28;20034;-81
2022/05/21 16:47:53;;;;;;;4.95;0.80;;;;;;;17.70;77.32;101908.09;10470190;28;20041;-83
2022/05/21 16:52:54;;;;;;;3.80;0.93;;;;;;;17.35;77.09;101917.25;10456785;28;20044;-79
2022/05/21 16:57:54;;;;;;;5.07;1.00;;;;;;;16.84;78.34;101917.06;10470544;28;20435;-83
2022/05/21 17:02:54;;;;;;;6.20;1.25;;;;;;;16.31;78.20;101925.38;10492802;28;20059;-77
2022/05/21 17:07:55;;;;;;;5.75;1.25;;;;;;;16.03;80.62;101912.66;10495490;28;20033;-79
2022/05/21 17:12:55;;;;;;;6.38;2.47;;;;;;;15.95;84.40;101927.84;10495260;28;20077;-78
2022/05/21 17:17:56;;;;;;;6.80;1.63;;;;;;;15.86;86.74;101918.34;10499996;28;20025;-76
2022/05/21 17:22:56;;;;;;;6.03;1.27;;;;;;;15.86;85.36;101919.19;10505770;28;20058;-79
2022/05/21 17:33:19;;;;;;;7.35;1.90;;;;;;;15.56;84.68;101936.34;10474769;28;20033;-77
2022/05/21 17:38:20;;;;;;;7.43;1.77;;;;;;;15.38;86.73;101933.94;10480147;28;20040;-77
2022/05/21 17:43:21;;;;;;;10.70;1.20;;;;;;;15.18;85.73;101923.47;10496599;28;20049;-76
2022/05/21 17:48:22;;;;;;;25.75;2.17;;;;;;;15.40;91.17;101952.00;10483096;28;20037;-74
2022/05/21 17:53:22;;;;;;;6.28;1.30;;;;;;;15.37;90.61;101955.28;10471817;28;20047;-82
2022/05/21 17:58:23;;;;;;;6.50;1.42;;;;;;;15.24;91.57;101953.75;10482828;28;20033;-87
2022/05/21 18:03:26;;;;;;;5.68;1.40;;;;;;;15.03;92.71;101933.28;10470088;28;20044;-85
2022/05/21 18:08:29;;;;;;;10.35;1.60;;;;;;;14.99;94.44;101957.06;10469166;28;20538;-81
2022/05/21 18:13:30;;;;;;;5.10;1.35;;;;;;;14.76;99.17;101943.44;10484863;28;20041;-84
2022/05/21 18:23:49;;;;;;;9.23;1.75;;;;;;;14.70;100.00;101954.47;10487215;28;20047;-79
2022/05/21 18:28:50;;;;;;;5.50;1.45;;;;;;;14.62;100.00;101943.81;10501522;28;20523;-80
2022/05/21 18:33:51;;;;;;;5.20;2.25;;;;;;;14.46;100.00;101936.34;10501116;28;20385;-78
2022/05/21 18:38:51;;;;;;;5.30;1.40;;;;;;;14.46;100.00;101941.88;10482191;28;20040;-78
2022/05/21 18:43:53;;;;;;;4.70;1.35;;;;;;;14.31;100.00;101937.78;10469759;28;20059;-80
2022/05/21 18:48:55;;;;;;;6.60;1.65;;;;;;;14.30;100.00;101943.56;10459137;28;20041;-80
2022/05/21 18:53:55;;;;;;;6.57;2.15;;;;;;;14.19;100.00;101939.81;10459019;28;20127;-79
2022/05/21 18:58:56;;;;;;;7.07;2.17;;;;;;;14.23;100.00;101957.59;10458159;28;20869;-79
2022/05/21 19:03:56;;;;;;;8.00;1.38;;;;;;;14.16;100.00;101959.72;10459361;28;20041;-79
2022/05/21 19:08:57;;;;;;;7.72;1.45;;;;;;;14.04;100.00;101958.97;10458454;28;20037;-79
2022/05/21 19:13:57;;;;;;;8.82;1.70;;;;;;;13.93;100.00;101969.84;10458374;28;20044;-78
2022/05/21 19:19:12;;;;;;;9.77;1.88;;;;;;;13.78;100.00;101965.97;10464750;28;20341;-78
2022/05/21 19:24:14;;;;;;;14.23;2.03;;;;;;;13.72;100.00;101970.56;10474842;28;20051;-80
2022/05/21 19:29:15;;;;;;;9.57;1.92;;;;;;;13.63;100.00;101974.84;10479592;28;20571;-78
2022/05/21 19:34:15;;;;;;;7.60;1.70;;;;;;;13.26;100.00;101936.47;10471951;28;20037;-79
2022/05/21 19:44:38;;;;;;;8.18;1.92;;;;;;;13.32;100.00;101982.53;10485236;28;20067;-79
2022/05/21 19:49:39;;;;;;;11.02;2.17;;;;;;;13.25;100.00;101984.56;10499912;28;20041;-78
2022/05/21 19:54:41;;;;;;;6.63;1.80;;;;;;;13.18;100.00;101986.63;10484188;28;20400;-79
2022/05/21 19:59:43;;;;;;;10.38;2.22;;;;;;;13.08;100.00;101999.16;10472761;28;20060;-78
2022/05/21 20:04:44;;;;;;;8.25;2.67;;;;;;;12.91;100.00;101989.94;10469273;28;20095;-79
2022/05/21 20:09:44;;;;;;;6.93;2.15;;;;;;;12.68;100.00;101991.63;10497875;28;20102;-77
2022/05/21 20:14:45;;;;;;;8.90;2.28;;;;;;;12.43;100.00;101991.88;10479603;28;20060;-77
2022/05/21 20:19:46;;;;;;;13.32;2.80;;;;;;;12.26;100.00;102002.78;10496909;28;20606;-77
2022/05/21 20:24:47;;;;;;;12.90;2.65;;;;;;;12.03;100.00;102009.13;10498322;28;20119;-77
2022/05/21 20:29:47;;;;;;;8.98;2.95;;;;;;;11.84;100.00;102008.28;10496659;28;20119;-77
2022/05/21 20:34:48;;;;;;;14.82;2.72;;;;;;;11.77;100.00;102001.22;10479294;28;20036;-77
2022/05/21 20:39:48;;;;;;;12.30;2.85;;;;;;;11.55;100.00;101998.13;10495922;28;20040;-77
2022/05/21 20:44:49;;;;;;;9.25;3.28;;;;;;;11.54;100.00;101990.94;10496225;28;20041;-77
2022/05/21 20:49:50;;;;;;;10.25;3.13;;;;;;;11.49;100.00;102000.75;10497856;28;20040;-76
2022/05/21 20:54:50;;;;;;;10.00;2.55;;;;;;;11.46;100.00;101995.69;10495527;28;20098;-75
2022/05/21 20:59:51;;;;;;;16.80;3.25;;;;;;;11.37;100.00;101990.72;10496076;28;20039;-77
2022/05/21 21:04:51;;;;;;;11.27;2.30;;;;;;;11.22;100.00;101993.88;10500149;28;20041;-76
2022/05/21 21:09:52;;;;;;;8.20;3.17;;;;;;;11.08;100.00;101994.06;10508546;28;20051;-76
2022/05/21 21:14:52;;;;;;;12.43;3.22;;;;;;;10.76;100.00;101963.03;10484108;28;20044;-76
2022/05/21 21:19:52;;;;;;;17.30;3.92;;;;;;;10.72;100.00;101983.03;10493650;28;20032;-76
2022/05/21 21:24:53;;;;;;;13.00;3.40;;;;;;;10.54;100.00;101976.41;10492393;28;20040;-76
2022/05/21 21:29:53;;;;;;;12.88;4.85;;;;;;;10.40;100.00;101983.97;10484516;28;20092;-76
2022/05/21 21:34:54;;;;;;;7.93;3.22;;;;;;;10.29;100.00;101969.03;10479733;28;20048;-78
2022/05/21 21:39:56;;;;;;;10.98;3.65;;;;;;;10.23;100.00;101964.41;10478421;28;20044;-77
2022/05/21 21:44:56;;;;;;;16.25;4.47;;;;;;;10.18;100.00;101958.72;10459995;28;20058;-76
2022/05/21 21:49:57;;;;;;;11.13;4.05;;;;;;;10.10;100.00;101950.75;10493749;28;20048;-75
2022/05/21 21:54:57;;;;;;;12.00;5.25;;;;;;;10.01;100.00;101949.34;10493875;28;20036;-76
2022/05/21 22:05:17;;;;;;;10.27;4.70;;;;;;;9.82;100.00;101940.22;10499635;28;20095;-77
2022/05/21 22:10:17;;;;;;;12.88;5.05;;;;;;;9.70;100.00;101935.41;10504194;28;20199;-76
2022/05/21 22:15:18;;;;;;;11.00;4.65;;;;;;;9.53;100.00;101927.91;10502127;28;20507;-77
2022/05/21 22:20:20;;;;;;;12.07;4.57;;;;;;;9.39;100.00;101925.25;10501710;28;20401;-77
2022/05/21 22:25:20;;;;;;;12.38;4.82;;;;;;;9.37;100.00;101943.88;10484670;28;20052;-76
2022/05/21 22:30:21;;;;;;;14.80;7.47;;;;;;;9.34;100.00;101944.28;10498037;28;20041;-77
2022/05/21 22:35:21;;;;;;;16.40;5.65;;;;;;;9.32;100.00;101942.84;10500351;28;20048;-79
2022/05/21 22:40:25;;;;;;;13.75;6.25;;;;;;;9.25;100.00;101937.38;10502969;28;20036;-76
2022/05/21 22:45:26;;;;;;;13.95;6.68;;;;;;;9.24;100.00;101932.94;10484850;28;20041;-77
2022/05/21 22:50:26;;;;;;;16.20;6.30;;;;;;;9.29;100.00;101933.97;10501202;28;20036;-77
2022/05/21 22:55:27;;;;;;;13.13;5.70;;;;;;;9.29;100.00;101927.63;10502951;28;20035;-77
2022/05/21 23:00:28;;;;;;;16.08;5.88;;;;;;;9.20;100.00;101915.19;10501445;28;20037;-77
2022/05/21 23:05:29;;;;;;;17.08;6.88;;;;;;;9.19;100.00;101928.09;10488782;28;20524;-76
2022/05/21 23:10:30;;;;;;;16.20;6.65;;;;;;;9.19;100.00;101919.84;10460657;28;20033;-76
2022/05/21 23:20:54;;;;;;;17.20;9.23;;;;;;;9.19;100.00;101910.78;10458297;28;20029;-76
2022/05/21 23:25:55;;;;;;;12.75;6.65;;;;;;;9.20;100.00;101910.56;10458683;28;20033;-77
2022/05/21 23:30:55;;;;;;;19.58;8.63;;;;;;;9.14;100.00;101899.63;10458694;28;20040;-77
2022/05/21 23:35:58;;;;;;;16.83;6.88;;;;;;;9.20;100.00;101895.97;10457492;28;20389;-76
2022/05/21 23:40:59;;;;;;;14.38;6.57;;;;;;;9.14;100.00;101888.63;10457681;28;20033;-77
2022/05/21 23:45:59;;;;;;;15.20;7.07;;;;;;;9.05;100.00;101886.16;10457159;28;20041;-77
2022/05/21 23:51:01;;;;;;;22.25;7.72;;;;;;;8.96;100.00;101892.09;10440459;28;20036;-77
2022/05/21 23:56:06;;;;;;;17.15;7.50;;;;;;;8.88;100.00;101891.28;10458995;28;20089;-77
